Time;durP1;ratioP1;P1;durP2;ratioP2;P2;SDS_P1;SDS_P2;PMS_P1;PMS_P2;Temp;Humidity;BMP_temperature;BMP_pressure;BME280_temperature;BME280_humidity;BME280_pressure;Samples;Min_cycle;Max_cycle;Signal;HPM_P1;HPM_P2
2024/01/03 00:00:25;;;;;;;18.27;11.13;;;3.20;99.90;;;;;;5058179;28;20508;-78
2024/01/03 00:02:51;;;;;;;20.23;10.88;;;3.20;99.90;;;;;;5075592;28;20031;-78
2024/01/03 00:05:26;;;;;;;18.05;10.63;;;3.20;99.90;;;;;;5058070;28;20024;-78
2024/01/03 00:07:52;;;;;;;14.80;9.57;;;3.20;99.90;;;;;;5064474;28;20036;-78
2024/01/03 00:10:47;;;;;;;14.15;10.15;;;3.20;99.90;;;;;;5057521;28;20107;-78
2024/01/03 00:13:31;;;;;;;16.63;9.68;;;3.20;99.90;;;;;;5057666;28;20098;-78
2024/01/03 00:16:03;;;;;;;14.77;8.90;;;3.20;99.90;;;;;;5063828;28;20070;-78
2024/01/03 00:18:38;;;;;;;15.57;9.18;;;3.20;99.90;;;;;;5057863;28;20032;-79
2024/01/03 00:21:05;;;;;;;15.25;9.07;;;3.20;99.90;;;;;;5062342;28;20025;-80
2024/01/03 00:23:44;;;;;;;18.08;10.57;;;3.20;99.90;;;;;;5074912;28;20021;-78
2024/01/03 00:26:12;;;;;;;14.50;8.52;;;3.30;99.90;;;;;;5075154;28;20116;-79
2024/01/03 00:28:38;;;;;;;12.77;8.10;;;3.30;99.90;;;;;;5075236;28;20013;-79
2024/01/03 00:31:03;;;;;;;13.40;8.48;;;3.20;99.90;;;;;;5075181;28;20016;-78
2024/01/03 00:33:29;;;;;;;14.32;9.40;;;3.30;99.90;;;;;;5045730;28;20041;-78
2024/01/03 00:35:56;;;;;;;13.43;9.20;;;3.20;99.90;;;;;;5075124;28;20481;-81
2024/01/03 00:38:22;;;;;;;9.85;7.65;;;3.30;99.90;;;;;;5074952;28;20037;-81
2024/01/03 00:40:55;;;;;;;11.07;8.57;;;3.30;99.90;;;;;;5057028;28;20028;-81
2024/01/03 00:43:20;;;;;;;11.32;7.45;;;3.30;99.90;;;;;;5056908;28;20032;-78
2024/01/03 00:45:48;;;;;;;9.10;7.35;;;3.30;99.90;;;;;;5047900;28;20021;-78
2024/01/03 00:48:15;;;;;;;9.75;6.60;;;3.30;99.90;;;;;;5056884;28;20031;-78
2024/01/03 00:50:40;;;;;;;9.00;6.43;;;3.20;99.90;;;;;;5049665;28;20032;-79
2024/01/03 00:53:06;;;;;;;9.02;6.80;;;3.30;99.90;;;;;;5074512;28;20031;-78
2024/01/03 00:55:33;;;;;;;8.52;6.25;;;3.30;99.90;;;;;;5074929;28;20013;-79
2024/01/03 00:57:58;;;;;;;8.43;6.40;;;3.30;99.90;;;;;;5074461;28;20025;-79
2024/01/03 01:00:24;;;;;;;9.80;6.28;;;3.20;99.90;;;;;;5057183;28;20035;-78
2024/01/03 01:02:50;;;;;;;9.57;6.40;;;3.30;99.90;;;;;;5074434;28;20016;-78
2024/01/03 01:05:16;;;;;;;13.43;7.43;;;3.30;99.90;;;;;;5056776;28;20047;-80
2024/01/03 01:07:41;;;;;;;10.50;6.45;;;3.30;99.90;;;;;;5072562;28;20028;-80
2024/01/03 01:10:07;;;;;;;8.68;6.20;;;3.30;99.90;;;;;;5074386;28;20102;-78
2024/01/03 01:12:33;;;;;;;9.40;6.93;;;3.30;99.90;;;;;;5074500;28;20021;-78
2024/01/03 01:15:00;;;;;;;10.30;6.68;;;3.30;99.90;;;;;;5056568;28;20058;-78
2024/01/03 01:17:26;;;;;;;11.02;5.90;;;3.30;99.90;;;;;;5056822;28;20021;-80
2024/01/03 01:19:52;;;;;;;10.00;6.68;;;3.40;99.90;;;;;;5074203;28;20047;-80
2024/01/03 01:22:18;;;;;;;9.13;6.18;;;3.40;99.90;;;;;;5074334;28;20077;-79
2024/01/03 01:24:43;;;;;;;7.93;6.05;;;3.30;99.90;;;;;;5074148;28;20028;-78
2024/01/03 01:27:09;;;;;;;8.35;5.75;;;3.30;99.90;;;;;;5073828;28;20040;-79
2024/01/03 01:29:35;;;;;;;9.43;6.63;;;3.30;99.90;;;;;;5050240;28;20049;-79
2024/01/03 01:32:00;;;;;;;8.35;6.28;;;3.40;99.90;;;;;;5055771;28;20202;-79
2024/01/03 01:34:26;;;;;;;9.63;5.90;;;3.40;99.90;;;;;;5056289;28;20111;-78
2024/01/03 01:36:52;;;;;;;10.55;6.10;;;3.30;99.90;;;;;;5056065;28;20453;-78
2024/01/03 01:39:18;;;;;;;8.48;5.45;;;3.40;99.90;;;;;;5056195;28;20021;-78
2024/01/03 01:41:43;;;;;;;8.73;5.38;;;3.40;99.90;;;;;;5055816;28;20028;-78
2024/01/03 01:44:09;;;;;;;7.85;5.32;;;3.40;99.90;;;;;;5073668;28;20032;-81
2024/01/03 01:46:36;;;;;;;7.22;5.03;;;3.30;99.90;;;;;;5049083;28;20074;-80
2024/01/03 01:49:04;;;;;;;7.68;5.25;;;3.40;99.90;;;;;;5073889;28;20027;-79
2024/01/03 01:51:32;;;;;;;9.85;5.32;;;3.40;99.90;;;;;;5055669;28;20623;-80
2024/01/03 01:53:58;;;;;;;9.48;5.50;;;3.40;99.90;;;;;;5073633;28;20480;-79
2024/01/03 01:56:24;;;;;;;9.45;6.03;;;3.40;99.90;;;;;;5073714;28;20029;-79
2024/01/03 01:58:50;;;;;;;12.75;6.82;;;3.40;99.90;;;;;;5054929;28;20016;-78
2024/01/03 02:01:18;;;;;;;13.43;6.07;;;3.40;99.90;;;;;;5043738;28;20423;-78
2024/01/03 02:03:44;;;;;;;15.45;6.32;;;3.40;99.90;;;;;;5055080;28;20377;-78
2024/01/03 02:06:10;;;;;;;12.50;6.68;;;3.40;99.90;;;;;;5073215;28;20028;-78
2024/01/03 02:08:36;;;;;;;13.35;5.80;;;3.40;99.90;;;;;;5055484;28;20385;-78
2024/01/03 02:11:03;;;;;;;10.13;5.50;;;3.40;99.90;;;;;;5072817;28;20044;-78
2024/01/03 02:13:29;;;;;;;9.13;5.50;;;3.40;99.90;;;;;;5072656;28;20532;-79
2024/01/03 02:15:55;;;;;;;8.98;4.35;;;3.40;99.90;;;;;;5055387;28;20027;-78
2024/01/03 02:18:21;;;;;;;6.88;4.78;;;3.40;99.90;;;;;;5054977;28;20112;-79
2024/01/03 02:20:47;;;;;;;5.93;4.22;;;3.40;99.90;;;;;;5047336;28;20031;-80
2024/01/03 02:23:13;;;;;;;6.00;4.03;;;3.40;99.90;;;;;;5054963;28;20016;-80
2024/01/03 02:25:39;;;;;;;6.63;4.53;;;3.50;99.90;;;;;;5055013;28;20520;-78
2024/01/03 02:28:09;;;;;;;4.93;4.03;;;3.40;99.90;;;;;;5072015;28;20474;-79
2024/01/03 02:30:35;;;;;;;4.47;3.83;;;3.40;99.90;;;;;;5049796;28;20016;-79
2024/01/03 02:33:01;;;;;;;6.80;4.18;;;3.40;99.90;;;;;;5054950;28;20064;-79
2024/01/03 02:35:27;;;;;;;4.97;3.53;;;3.40;99.90;;;;;;5080049;28;20077;-79
2024/01/03 02:37:53;;;;;;;5.20;3.60;;;3.40;99.90;;;;;;5072620;28;20028;-79
2024/01/03 02:40:18;;;;;;;5.70;3.95;;;3.40;99.90;;;;;;5072685;28;20027;-78
2024/01/03 02:42:44;;;;;;;9.30;5.82;;;3.40;99.90;;;;;;5072592;28;20020;-78
2024/01/03 02:45:10;;;;;;;6.43;4.43;;;3.30;99.90;;;;;;5072918;28;20058;-78
2024/01/03 02:47:35;;;;;;;5.70;3.83;;;3.40;99.90;;;;;;5067952;28;20040;-79
2024/01/03 02:50:01;;;;;;;3.53;3.22;;;3.30;99.90;;;;;;5054655;28;20020;-79
2024/01/03 02:52:27;;;;;;;5.18;3.45;;;3.40;99.90;;;;;;5072468;28;20025;-79
2024/01/03 02:54:53;;;;;;;4.32;3.47;;;3.40;99.90;;;;;;5072719;28;20488;-78
2024/01/03 02:57:19;;;;;;;7.05;3.30;;;3.40;99.90;;;;;;5054641;28;20107;-79
2024/01/03 02:59:44;;;;;;;4.78;3.35;;;3.40;99.90;;;;;;5072638;28;20414;-80
2024/01/03 03:02:10;;;;;;;3.83;2.85;;;3.40;99.90;;;;;;5072403;28;20032;-78
2024/01/03 03:04:35;;;;;;;4.75;3.40;;;3.30;99.90;;;;;;5055461;28;20020;-81
2024/01/03 03:07:01;;;;;;;8.73;7.93;;;3.40;99.90;;;;;;5072390;28;20036;-78
2024/01/03 03:09:27;;;;;;;8.88;6.10;;;3.40;99.90;;;;;;5054775;28;20016;-79
2024/01/03 03:11:52;;;;;;;4.47;3.00;;;3.40;99.90;;;;;;5072421;28;20078;-78
2024/01/03 03:14:18;;;;;;;5.25;3.10;;;3.30;99.90;;;;;;5057684;28;20705;-80
2024/01/03 03:16:43;;;;;;;3.40;2.90;;;3.40;99.90;;;;;;5054284;28;20486;-78
2024/01/03 03:19:09;;;;;;;3.72;2.90;;;3.40;99.90;;;;;;5054579;28;20023;-78
2024/01/03 03:21:35;;;;;;;3.28;2.97;;;3.40;99.90;;;;;;5055116;28;20025;-79
2024/01/03 03:24:01;;;;;;;3.40;2.88;;;3.40;99.90;;;;;;5072396;28;20448;-80
2024/01/03 03:26:26;;;;;;;3.17;2.53;;;3.40;99.90;;;;;;5054331;28;20512;-78
2024/01/03 03:28:52;;;;;;;3.33;2.83;;;3.40;99.90;;;;;;5072254;28;20025;-79
2024/01/03 03:31:18;;;;;;;4.45;3.97;;;3.40;99.90;;;;;;5054368;28;20028;-78
2024/01/03 03:33:43;;;;;;;3.72;2.55;;;3.40;99.90;;;;;;5072201;28;20048;-81
2024/01/03 03:36:13;;;;;;;3.75;2.88;;;3.40;99.90;;;;;;5074271;28;20489;-79
2024/01/03 03:38:39;;;;;;;4.68;2.60;;;3.40;99.90;;;;;;5049023;28;20066;-79
2024/01/03 03:41:10;;;;;;;3.50;2.35;;;3.40;99.90;;;;;;5050370;28;20040;-80
2024/01/03 03:43:37;;;;;;;2.10;1.83;;;3.40;99.90;;;;;;5072211;28;20473;-78
2024/01/03 03:46:03;;;;;;;2.33;1.73;;;3.40;99.90;;;;;;5054013;28;20013;-79
2024/01/03 03:48:28;;;;;;;1.85;1.67;;;3.40;99.90;;;;;;5050643;28;20525;-80
2024/01/03 03:50:54;;;;;;;5.00;3.35;;;3.50;99.90;;;;;;5068887;28;20085;-79
2024/01/03 03:53:20;;;;;;;5.15;4.38;;;3.50;99.90;;;;;;5072022;28;20028;-79
2024/01/03 03:55:45;;;;;;;3.08;2.88;;;3.50;99.90;;;;;;5054367;28;20144;-79
2024/01/03 03:58:11;;;;;;;4.30;2.60;;;3.50;99.90;;;;;;5046054;28;20016;-79
2024/01/03 04:00:37;;;;;;;5.85;3.80;;;3.50;99.90;;;;;;5072237;28;20017;-78
2024/01/03 04:03:06;;;;;;;3.05;2.65;;;3.50;99.90;;;;;;5054039;28;20572;-79
2024/01/03 04:05:36;;;;;;;3.78;3.28;;;3.60;99.90;;;;;;5071778;28;20017;-79
2024/01/03 04:08:02;;;;;;;4.55;3.20;;;3.60;99.90;;;;;;5071579;28;20037;-79
2024/01/03 04:10:28;;;;;;;4.25;3.00;;;3.60;99.90;;;;;;5054013;28;20381;-79
2024/01/03 04:12:55;;;;;;;4.70;3.30;;;3.60;99.90;;;;;;5046881;28;20497;-79
2024/01/03 04:15:22;;;;;;;4.28;3.85;;;3.60;99.90;;;;;;5051577;28;20474;-79
2024/01/03 04:17:47;;;;;;;3.35;2.95;;;3.70;99.90;;;;;;5053764;28;20017;-78
2024/01/03 04:20:13;;;;;;;3.38;2.70;;;3.70;99.90;;;;;;5054197;28;20024;-78
2024/01/03 04:22:42;;;;;;;3.20;2.90;;;3.70;99.90;;;;;;5075427;28;20029;-78
2024/01/03 04:25:09;;;;;;;3.33;3.00;;;3.70;99.90;;;;;;5057503;28;20016;-78
2024/01/03 04:27:35;;;;;;;3.63;2.97;;;3.70;99.90;;;;;;5075337;28;20032;-78
2024/01/03 04:30:00;;;;;;;3.47;3.17;;;3.80;99.90;;;;;;5057388;28;20016;-79
2024/01/03 04:32:26;;;;;;;4.65;3.60;;;3.80;99.90;;;;;;5074960;28;20135;-79
2024/01/03 04:34:52;;;;;;;5.07;4.57;;;3.80;99.90;;;;;;5068102;28;20024;-78
2024/01/03 04:37:17;;;;;;;4.03;3.42;;;3.80;99.90;;;;;;5057336;28;20125;-79
2024/01/03 04:39:44;;;;;;;4.63;3.53;;;3.80;99.90;;;;;;5075431;28;20410;-79
2024/01/03 04:42:10;;;;;;;4.40;3.28;;;3.90;99.90;;;;;;5057348;28;20029;-81
2024/01/03 04:44:36;;;;;;;4.65;3.28;;;3.90;99.90;;;;;;5049172;28;20048;-79
2024/01/03 04:47:02;;;;;;;4.88;3.63;;;3.90;99.90;;;;;;5074988;28;20032;-79
2024/01/03 04:49:30;;;;;;;5.75;3.20;;;3.90;99.90;;;;;;5057042;28;20544;-79
2024/01/03 04:51:56;;;;;;;5.10;4.05;;;3.90;99.90;;;;;;5074975;28;20479;-78
2024/01/03 04:54:22;;;;;;;4.65;4.00;;;3.90;99.90;;;;;;5056911;28;20070;-80
2024/01/03 04:56:48;;;;;;;8.07;4.68;;;3.90;99.90;;;;;;5056965;28;20064;-79
2024/01/03 04:59:13;;;;;;;4.03;3.63;;;3.90;99.90;;;;;;5056875;28;20067;-79
2024/01/03 05:01:40;;;;;;;5.57;4.25;;;3.90;99.90;;;;;;5074481;28;20024;-79
2024/01/03 05:04:06;;;;;;;5.07;4.57;;;3.90;99.90;;;;;;5056977;28;20036;-79
2024/01/03 05:06:32;;;;;;;4.53;3.83;;;3.90;99.90;;;;;;5074437;28;20103;-78
2024/01/03 05:08:58;;;;;;;6.80;4.35;;;3.90;99.90;;;;;;5056450;28;20032;-78
2024/01/03 05:11:23;;;;;;;6.03;4.68;;;3.90;99.90;;;;;;5074774;28;20024;-78
2024/01/03 05:13:49;;;;;;;7.25;4.35;;;3.90;99.90;;;;;;5074700;28;20390;-80
2024/01/03 05:16:15;;;;;;;6.30;4.18;;;3.90;99.90;;;;;;5073541;28;20025;-80
2024/01/03 05:18:40;;;;;;;6.88;4.65;;;4.00;99.90;;;;;;5056350;28;20094;-79
2024/01/03 05:21:06;;;;;;;5.88;5.28;;;4.00;99.90;;;;;;5074563;28;20070;-79
2024/01/03 05:23:32;;;;;;;8.32;5.95;;;4.00;99.90;;;;;;5055750;28;20031;-79
2024/01/03 05:25:58;;;;;;;8.60;6.55;;;4.00;99.90;;;;;;5056053;28;20020;-79
2024/01/03 05:28:24;;;;;;;5.93;4.72;;;4.00;99.90;;;;;;5074206;28;20445;-79
2024/01/03 05:30:49;;;;;;;8.20;4.57;;;4.00;99.90;;;;;;5072868;28;20090;-79
2024/01/03 05:33:15;;;;;;;6.38;4.78;;;4.00;99.90;;;;;;5053094;28;20051;-79
2024/01/03 05:35:41;;;;;;;7.03;4.93;;;4.00;99.90;;;;;;5069321;28;20033;-79
2024/01/03 05:38:07;;;;;;;7.00;4.97;;;4.10;99.90;;;;;;5073998;28;20012;-80
2024/01/03 05:40:32;;;;;;;8.65;5.32;;;4.00;99.90;;;;;;5071215;28;20042;-80
2024/01/03 05:42:58;;;;;;;7.43;5.00;;;4.10;99.90;;;;;;5053766;28;20512;-79
2024/01/03 05:45:23;;;;;;;8.15;4.65;;;4.10;99.90;;;;;;5058497;28;20560;-80
2024/01/03 05:47:49;;;;;;;6.35;4.40;;;4.10;99.90;;;;;;5072893;28;20394;-80
2024/01/03 05:50:15;;;;;;;6.55;4.45;;;4.10;99.90;;;;;;5081654;28;20099;-80
2024/01/03 05:52:41;;;;;;;6.10;4.40;;;4.10;99.90;;;;;;5062073;28;20033;-79
2024/01/03 05:55:07;;;;;;;5.93;4.75;;;4.10;99.90;;;;;;5079164;28;20032;-79
2024/01/03 05:57:40;;;;;;;6.63;4.45;;;4.10;99.90;;;;;;5059339;28;20458;-79
2024/01/03 06:00:06;;;;;;;5.47;4.32;;;4.10;99.90;;;;;;5081038;28;20028;-79
2024/01/03 06:02:32;;;;;;;5.07;4.20;;;4.10;99.90;;;;;;5057527;28;20111;-79
2024/01/03 06:04:58;;;;;;;6.47;5.00;;;4.20;99.90;;;;;;5083413;28;20047;-79
2024/01/03 06:07:23;;;;;;;7.05;4.70;;;4.20;99.90;;;;;;5064149;28;20201;-79
2024/01/03 06:09:49;;;;;;;7.85;4.93;;;4.20;99.90;;;;;;5077181;28;20579;-79
2024/01/03 06:12:15;;;;;;;6.65;4.40;;;4.20;99.90;;;;;;5063930;28;20028;-78
2024/01/03 06:14:40;;;;;;;5.25;4.60;;;4.20;99.90;;;;;;5058064;28;20051;-79
2024/01/03 06:17:06;;;;;;;6.93;5.43;;;4.20;99.90;;;;;;5075482;28;21399;-79
2024/01/03 06:19:32;;;;;;;8.07;4.97;;;4.30;99.90;;;;;;5063192;28;20035;-78
2024/01/03 06:22:00;;;;;;;8.45;5.80;;;4.30;99.90;;;;;;5065196;28;20016;-79
2024/01/03 06:24:26;;;;;;;12.02;7.53;;;4.30;99.90;;;;;;5068441;28;20035;-79
2024/01/03 06:26:52;;;;;;;13.80;7.28;;;4.30;99.90;;;;;;5063349;28;20025;-79
2024/01/03 06:29:17;;;;;;;13.95;7.40;;;4.30;99.90;;;;;;5084050;28;20024;-78
2024/01/03 06:31:43;;;;;;;14.60;7.85;;;4.30;99.90;;;;;;5062155;28;20030;-79
2024/01/03 06:34:09;;;;;;;8.68;5.82;;;4.30;99.90;;;;;;5084111;28;20401;-78
2024/01/03 06:36:34;;;;;;;6.63;5.55;;;4.30;99.90;;;;;;5079116;28;20401;-79
2024/01/03 06:39:00;;;;;;;10.60;6.20;;;4.40;99.90;;;;;;5070711;28;20541;-79
2024/01/03 06:41:26;;;;;;;7.40;6.07;;;4.40;99.90;;;;;;5061465;28;20078;-79
2024/01/03 06:43:51;;;;;;;8.38;6.07;;;4.40;99.90;;;;;;5087849;28;20099;-79
2024/01/03 06:46:17;;;;;;;14.25;7.70;;;4.40;99.90;;;;;;5067392;28;20466;-79
2024/01/03 06:48:43;;;;;;;13.18;8.32;;;4.40;99.90;;;;;;5072683;28;20470;-79
2024/01/03 06:51:09;;;;;;;11.50;7.40;;;4.40;99.90;;;;;;5055356;28;20410;-79
2024/01/03 06:53:34;;;;;;;9.02;6.55;;;4.40;99.90;;;;;;5064458;28;20111;-79
2024/01/03 06:56:00;;;;;;;10.82;6.55;;;4.40;99.90;;;;;;5071476;28;20056;-78
2024/01/03 06:58:26;;;;;;;9.32;6.78;;;4.40;99.90;;;;;;5072563;28;20028;-78
2024/01/03 07:00:52;;;;;;;8.25;6.63;;;4.40;99.90;;;;;;5071299;28;20099;-78
2024/01/03 07:03:18;;;;;;;9.50;6.97;;;4.50;99.90;;;;;;5056108;28;20013;-78
2024/01/03 07:05:47;;;;;;;11.35;6.75;;;4.50;99.90;;;;;;5056127;28;20020;-79
2024/01/03 07:08:12;;;;;;;10.75;7.03;;;4.50;99.90;;;;;;5056260;28;20123;-79
2024/01/03 07:10:38;;;;;;;9.38;7.20;;;4.50;99.90;;;;;;5062881;28;20063;-79
2024/01/03 07:13:04;;;;;;;10.88;7.03;;;4.50;99.90;;;;;;5060893;28;20016;-78
2024/01/03 07:15:29;;;;;;;11.07;7.53;;;4.50;99.90;;;;;;5054378;28;20032;-79
2024/01/03 07:17:55;;;;;;;11.15;7.32;;;4.50;99.90;;;;;;5064059;28;20024;-78
2024/01/03 07:20:25;;;;;;;10.30;7.15;;;4.50;99.90;;;;;;5060895;28;20170;-78
2024/01/03 07:22:51;;;;;;;9.68;7.43;;;4.50;99.90;;;;;;5075363;28;20474;-79
2024/01/03 07:25:17;;;;;;;13.27;8.60;;;4.50;99.90;;;;;;5053158;28;20016;-78
2024/01/03 07:27:43;;;;;;;12.32;8.40;;;4.60;99.90;;;;;;5081231;28;20036;-78
2024/01/03 07:30:10;;;;;;;12.38;8.18;;;4.60;99.90;;;;;;5071642;28;20150;-78
2024/01/03 07:32:35;;;;;;;12.88;8.02;;;4.60;99.90;;;;;;5051998;28;20052;-78
2024/01/03 07:35:01;;;;;;;12.25;8.23;;;4.70;99.90;;;;;;5071094;28;20017;-79
2024/01/03 07:37:27;;;;;;;9.55;7.05;;;4.70;99.90;;;;;;5052139;28;20028;-78
2024/01/03 07:39:53;;;;;;;10.80;7.50;;;4.70;99.90;;;;;;5068975;28;20012;-78
2024/01/03 07:42:18;;;;;;;8.43;6.05;;;4.70;99.90;;;;;;5052104;28;20032;-78
2024/01/03 07:44:44;;;;;;;8.70;6.50;;;4.70;99.90;;;;;;5052305;28;20096;-79
2024/01/03 07:47:10;;;;;;;7.82;6.57;;;4.70;99.90;;;;;;5052334;28;20032;-79
2024/01/03 07:49:37;;;;;;;9.43;6.55;;;4.70;99.90;;;;;;5052866;28;20545;-78
2024/01/03 07:52:03;;;;;;;7.85;5.88;;;4.70;99.90;;;;;;5053546;28;20070;-78
2024/01/03 07:54:29;;;;;;;7.88;5.43;;;4.70;99.90;;;;;;5053516;28;20103;-78
2024/01/03 07:56:57;;;;;;;7.85;6.15;;;4.70;99.90;;;;;;5058443;28;20546;-78
2024/01/03 07:59:23;;;;;;;7.32;5.13;;;4.70;99.90;;;;;;5058744;28;20970;-78
2024/01/03 08:01:49;;;;;;;9.57;5.75;;;4.70;99.90;;;;;;5083285;28;20034;-78
2024/01/03 08:04:18;;;;;;;9.15;6.25;;;4.80;99.90;;;;;;5076350;28;20021;-78
2024/01/03 08:06:44;;;;;;;10.68;6.55;;;4.80;99.90;;;;;;5075445;28;20040;-78
2024/01/03 08:09:10;;;;;;;10.35;6.18;;;4.80;99.90;;;;;;5075255;28;20078;-78
2024/01/03 08:11:36;;;;;;;9.93;7.20;;;4.80;99.90;;;;;;5083301;28;20052;-78
2024/01/03 08:14:02;;;;;;;8.48;6.35;;;4.80;99.90;;;;;;5076986;28;20035;-78
2024/01/03 08:16:28;;;;;;;10.00;6.40;;;4.80;99.90;;;;;;5057428;28;20028;-78
2024/01/03 08:18:54;;;;;;;7.50;5.88;;;4.80;99.90;;;;;;5073422;28;20096;-78
2024/01/03 08:21:20;;;;;;;8.40;6.20;;;4.90;99.90;;;;;;5056102;28;20470;-79
2024/01/03 08:23:46;;;;;;;9.70;6.20;;;4.90;99.90;;;;;;5074722;28;20045;-78
2024/01/03 08:26:12;;;;;;;9.70;6.82;;;4.90;99.90;;;;;;5081051;28;20074;-78
2024/01/03 08:28:40;;;;;;;10.23;6.18;;;4.90;99.90;;;;;;5057411;28;20040;-78
2024/01/03 08:31:13;;;;;;;8.90;6.03;;;4.90;99.90;;;;;;5077107;28;20020;-81
2024/01/03 08:33:39;;;;;;;;;;;4.90;99.90;;;;;;5072142;28;20425;-78
2024/01/03 08:36:07;;;;;;;9.43;5.47;;;4.90;99.90;;;;;;5068857;28;19904;-77
2024/01/03 08:38:34;;;;;;;7.15;5.57;;;5.00;99.90;;;;;;5080171;28;20040;-78
2024/01/03 08:41:00;;;;;;;7.32;5.57;;;5.00;99.90;;;;;;5082776;28;20117;-78
2024/01/03 08:43:25;;;;;;;8.13;5.50;;;5.00;99.90;;;;;;5080036;28;20072;-77
2024/01/03 08:45:51;;;;;;;7.95;4.45;;;5.10;99.90;;;;;;5073555;28;20023;-77
2024/01/03 08:48:17;;;;;;;7.25;5.10;;;5.10;99.90;;;;;;5073356;28;20039;-77
2024/01/03 08:50:43;;;;;;;6.15;4.38;;;5.10;99.90;;;;;;5054889;28;20021;-78
2024/01/03 08:53:09;;;;;;;6.80;4.45;;;5.20;99.90;;;;;;5062941;28;20470;-77
2024/01/03 08:55:34;;;;;;;5.10;4.07;;;5.20;99.90;;;;;;5084938;28;20127;-78
2024/01/03 08:58:01;;;;;;;6.53;4.38;;;5.20;99.90;;;;;;5056737;28;20036;-78
2024/01/03 09:00:27;;;;;;;5.85;4.07;;;5.20;99.90;;;;;;5083082;28;20043;-78
2024/01/03 09:02:57;;;;;;;6.22;4.40;;;5.30;99.90;;;;;;5077403;28;20020;-78
2024/01/03 09:05:23;;;;;;;7.30;4.65;;;5.30;99.90;;;;;;5059723;28;20039;-79
2024/01/03 09:07:49;;;;;;;6.57;5.03;;;5.30;99.90;;;;;;5078774;28;20033;-78
2024/01/03 09:10:15;;;;;;;9.43;4.80;;;5.40;99.90;;;;;;5079895;28;20036;-78
2024/01/03 09:12:40;;;;;;;5.45;4.35;;;5.40;99.90;;;;;;5054634;28;20085;-78
2024/01/03 09:15:07;;;;;;;5.90;4.65;;;5.40;99.90;;;;;;5066629;28;20089;-78
2024/01/03 09:17:32;;;;;;;7.15;6.22;;;5.60;99.90;;;;;;5065162;28;20095;-78
2024/01/03 09:19:58;;;;;;;8.85;5.75;;;5.60;99.90;;;;;;5067642;28;20481;-78
2024/01/03 09:22:24;;;;;;;6.85;5.38;;;5.60;99.90;;;;;;5055924;28;20040;-78
2024/01/03 09:24:49;;;;;;;8.10;4.63;;;5.70;99.90;;;;;;5064703;28;20592;-78
2024/01/03 09:27:15;;;;;;;6.80;5.07;;;5.70;99.90;;;;;;5073366;28;20105;-78
2024/01/03 09:29:41;;;;;;;6.97;4.72;;;5.70;99.90;;;;;;5057513;28;20040;-78
2024/01/03 09:32:07;;;;;;;6.63;4.47;;;5.70;99.90;;;;;;5066860;28;20027;-78
2024/01/03 09:34:39;;;;;;;5.82;4.38;;;5.80;99.90;;;;;;5073449;28;20039;-78
2024/01/03 09:37:06;;;;;;;4.90;4.40;;;5.80;99.90;;;;;;5082444;28;20025;-77
2024/01/03 09:39:32;;;;;;;6.80;4.53;;;5.90;99.90;;;;;;5071493;28;20044;-78
2024/01/03 09:41:58;;;;;;;7.53;4.90;;;5.90;99.90;;;;;;5054765;28;20021;-79
2024/01/03 09:44:26;;;;;;;8.80;4.80;;;6.00;99.90;;;;;;5072759;28;20114;-78
2024/01/03 09:46:52;;;;;;;7.75;4.78;;;6.00;99.90;;;;;;5054868;28;20462;-77
2024/01/03 09:49:18;;;;;;;7.95;5.35;;;6.10;99.90;;;;;;5056477;28;20128;-77
2024/01/03 09:51:47;;;;;;;6.95;5.50;;;6.20;99.90;;;;;;5070432;28;20466;-78
2024/01/03 09:54:13;;;;;;;6.05;5.00;;;6.20;99.90;;;;;;5055823;28;20043;-78
2024/01/03 09:56:40;;;;;;;8.43;5.40;;;6.40;99.90;;;;;;5052362;28;20032;-78
2024/01/03 09:59:08;;;;;;;8.27;4.70;;;6.40;99.90;;;;;;5079354;28;20413;-78
2024/01/03 10:01:34;;;;;;;8.98;4.93;;;6.40;99.90;;;;;;5062231;28;20020;-77
2024/01/03 10:04:00;;;;;;;9.48;6.07;;;6.50;99.90;;;;;;5054706;28;20378;-77
2024/01/03 10:06:26;;;;;;;7.32;4.53;;;6.60;99.90;;;;;;5073267;28;20032;-78
2024/01/03 10:09:02;;;;;;;8.38;5.82;;;6.60;99.90;;;;;;5055108;28;20036;-78
2024/01/03 10:11:29;;;;;;;10.27;5.10;;;6.70;99.90;;;;;;5070313;28;20042;-78
2024/01/03 10:13:56;;;;;;;6.57;5.00;;;6.90;99.90;;;;;;5047794;28;20055;-78
2024/01/03 10:16:25;;;;;;;7.68;3.97;;;6.90;99.90;;;;;;5060202;28;20037;-78
2024/01/03 10:19:17;;;;;;;7.47;4.28;;;7.00;99.90;;;;;;5076221;28;20033;-78
2024/01/03 10:21:51;;;;;;;6.15;3.70;;;7.00;99.90;;;;;;5054493;28;20485;-78
2024/01/03 10:24:18;;;;;;;9.55;4.00;;;7.10;99.90;;;;;;5056905;28;20025;-77
2024/01/03 10:26:45;;;;;;;4.75;3.25;;;7.10;99.90;;;;;;5071343;28;20044;-77
2024/01/03 10:29:15;;;;;;;4.55;3.38;;;7.20;99.90;;;;;;5051277;28;20036;-77
2024/01/03 10:31:41;;;;;;;5.45;3.70;;;7.20;99.90;;;;;;5071465;28;20032;-78
2024/01/03 10:34:12;;;;;;;5.30;3.90;;;7.30;99.90;;;;;;5072787;28;20074;-77
2024/01/03 10:36:39;;;;;;;6.20;3.47;;;7.30;99.90;;;;;;5064140;28;20036;-77
2024/01/03 10:39:07;;;;;;;4.13;3.13;;;7.30;99.90;;;;;;5056471;28;20116;-77
2024/01/03 10:41:33;;;;;;;6.28;4.43;;;7.20;99.90;;;;;;5074463;28;20040;-77
2024/01/03 10:44:02;;;;;;;6.78;3.78;;;7.30;99.90;;;;;;5080470;28;20027;-78
2024/01/03 10:46:30;;;;;;;6.55;3.70;;;7.30;99.90;;;;;;5071940;28;20033;-77
2024/01/03 10:48:56;;;;;;;5.35;3.08;;;7.30;99.90;;;;;;5055281;28;20035;-77
2024/01/03 10:51:26;;;;;;;4.28;3.30;;;7.30;99.90;;;;;;5056763;28;20032;-77
2024/01/03 10:53:58;;;;;;;5.05;3.60;;;7.40;99.90;;;;;;5057244;28;20118;-77
2024/01/03 10:56:24;;;;;;;5.37;3.27;;;7.40;99.90;;;;;;5062091;28;20043;-77
2024/01/03 10:58:52;;;;;;;5.78;3.72;;;7.40;99.90;;;;;;5071959;28;20772;-77
2024/01/03 11:01:29;;;;;;;11.20;5.22;;;7.40;99.90;;;;;;5069151;28;20112;-78
2024/01/03 11:04:10;;;;;;;7.05;3.90;;;7.40;99.90;;;;;;5054038;28;20134;-77
2024/01/03 11:06:51;;;;;;;7.85;3.78;;;7.50;99.90;;;;;;5072163;28;20082;-77
2024/01/03 11:09:19;;;;;;;6.97;3.95;;;7.50;99.90;;;;;;5060587;28;20016;-78
2024/01/03 11:11:44;;;;;;;3.78;3.33;;;7.60;99.90;;;;;;5053452;28;20123;-77
2024/01/03 11:14:16;;;;;;;6.65;4.57;;;7.60;99.90;;;;;;5071521;28;20170;-77
2024/01/03 11:16:42;;;;;;;7.55;4.25;;;7.70;99.90;;;;;;5070928;28;20020;-77
2024/01/03 11:19:08;;;;;;;8.48;4.18;;;7.70;99.90;;;;;;5053809;28;20112;-77
2024/01/03 11:21:37;;;;;;;5.75;3.63;;;7.80;99.90;;;;;;5053913;28;20355;-77
2024/01/03 11:24:06;;;;;;;5.55;2.80;;;7.80;99.90;;;;;;5070870;28;20013;-77
2024/01/03 11:29:44;;;;;;;4.75;3.17;;;7.80;99.90;;;;;;5072293;28;20036;-77
2024/01/03 11:32:12;;;;;;;3.28;2.92;;;7.80;99.90;;;;;;5069107;28;20044;-77
2024/01/03 11:34:41;;;;;;;4.70;2.92;;;7.90;99.90;;;;;;5070958;28;20025;-76
2024/01/03 11:37:16;;;;;;;3.58;2.95;;;7.90;99.90;;;;;;5063894;28;20470;-77
2024/01/03 11:39:45;;;;;;;3.20;2.45;;;7.80;99.90;;;;;;5060078;28;20021;-77
2024/01/03 11:42:23;;;;;;;3.58;2.60;;;7.80;99.90;;;;;;5069675;28;20020;-77
2024/01/03 11:45:08;;;;;;;4.45;2.90;;;7.90;99.90;;;;;;5058145;28;20021;-78
2024/01/03 11:47:42;;;;;;;7.10;3.60;;;7.90;99.90;;;;;;5057654;28;20056;-77
2024/01/03 11:50:09;;;;;;;12.00;7.07;;;7.90;99.90;;;;;;5056111;28;20035;-77
2024/01/03 11:52:37;;;;;;;11.73;6.47;;;7.90;99.90;;;;;;5076784;28;20474;-77
2024/01/03 11:55:06;;;;;;;7.50;3.75;;;7.90;99.90;;;;;;5058226;28;20017;-77
2024/01/03 11:57:35;;;;;;;6.35;3.47;;;7.90;99.90;;;;;;5052576;28;20029;-77
2024/01/03 12:00:02;;;;;;;7.25;3.90;;;7.90;99.90;;;;;;5057429;28;20020;-78
2024/01/03 12:02:28;;;;;;;6.70;3.97;;;8.00;99.90;;;;;;5057168;28;20025;-77
2024/01/03 12:05:01;;;;;;;7.28;4.70;;;8.00;99.90;;;;;;5057677;28;20024;-77
2024/01/03 12:07:29;;;;;;;9.93;4.80;;;8.10;99.90;;;;;;5075128;28;20503;-77
2024/01/03 12:09:56;;;;;;;5.88;3.97;;;8.10;99.90;;;;;;5057367;28;20032;-77
2024/01/03 12:12:22;;;;;;;7.65;4.15;;;8.10;99.90;;;;;;5057385;28;20027;-77
2024/01/03 12:14:55;;;;;;;7.90;3.97;;;8.10;99.90;;;;;;5057324;28;20016;-75
2024/01/03 12:17:25;;;;;;;;;;;8.10;99.90;;;;;;5057031;28;20028;-77
2024/01/03 12:19:51;;;;;;;8.10;4.15;;;8.10;99.90;;;;;;5074014;28;19909;-77
2024/01/03 12:22:25;;;;;;;5.88;3.88;;;8.10;99.90;;;;;;5061829;28;20517;-76
2024/01/03 12:24:51;;;;;;;9.27;3.80;;;8.10;99.90;;;;;;5078966;28;20024;-77
2024/01/03 12:27:22;;;;;;;8.75;4.05;;;8.10;99.90;;;;;;5075132;28;20078;-77
2024/01/03 12:29:48;;;;;;;8.23;4.32;;;8.10;99.90;;;;;;5056896;28;20038;-77
2024/01/03 12:32:16;;;;;;;8.73;4.13;;;8.20;99.90;;;;;;5056249;28;20417;-77
2024/01/03 12:34:43;;;;;;;9.85;4.80;;;8.20;99.90;;;;;;5085051;28;20432;-77
2024/01/03 12:37:08;;;;;;;8.60;4.78;;;8.30;99.90;;;;;;5056995;28;20028;-77
2024/01/03 12:39:38;;;;;;;5.90;3.90;;;8.30;99.90;;;;;;5056518;28;20021;-77
2024/01/03 12:42:04;;;;;;;9.05;3.53;;;8.30;99.90;;;;;;5055096;28;20029;-77
2024/01/03 12:44:33;;;;;;;9.38;3.45;;;8.30;99.90;;;;;;5072987;28;20024;-76
2024/01/03 12:46:59;;;;;;;6.85;3.42;;;8.30;99.90;;;;;;5055173;28;20036;-76
2024/01/03 12:49:25;;;;;;;5.38;3.00;;;8.30;99.90;;;;;;5054974;28;20013;-77
2024/01/03 12:51:51;;;;;;;5.70;3.33;;;8.30;99.90;;;;;;5072857;28;20021;-76
2024/01/03 12:54:17;;;;;;;8.82;3.47;;;8.40;99.90;;;;;;5078311;28;20023;-77
2024/01/03 12:56:42;;;;;;;6.03;3.35;;;8.40;99.90;;;;;;5071221;28;20037;-77